sensor_id;sensor_type;location;lat;lon;timestamp;P1;durP1;ratioP1;P2;durP2;ratioP2
11608;SDS011;5860;52.018;8.536;2023-08-30T00:02:24;19.07;;;17.17;;
11608;SDS011;5860;52.018;8.536;2023-08-30T00:04:51;18.13;;;16.27;;
11608;SDS011;5860;52.018;8.536;2023-08-30T00:07:18;18.07;;;15.87;;
11608;SDS011;5860;52.018;8.536;2023-08-30T00:09:45;17.27;;;15.07;;
11608;SDS011;5860;52.018;8.536;2023-08-30T00:12:12;17.70;;;15.83;;
11608;SDS011;5860;52.018;8.536;2023-08-30T00:14:39;16.20;;;14.57;;
11608;SDS011;5860;52.018;8.536;2023-08-30T00:17:06;17.13;;;14.50;;
11608;SDS011;5860;52.018;8.536;2023-08-30T00:19:33;16.33;;;14.63;;
11608;SDS011;5860;52.018;8.536;2023-08-30T00:22:00;15.77;;;14.20;;
11608;SDS011;5860;52.018;8.536;2023-08-30T00:24:27;16.40;;;14.40;;
11608;SDS011;5860;52.018;8.536;2023-08-30T00:26:54;15.17;;;13.57;;
11608;SDS011;5860;52.018;8.536;2023-08-30T00:29:21;14.73;;;12.90;;
11608;SDS011;5860;52.018;8.536;2023-08-30T00:31:48;15.33;;;13.83;;
11608;SDS011;5860;52.018;8.536;2023-08-30T00:34:15;15.37;;;13.87;;
11608;SDS011;5860;52.018;8.536;2023-08-30T00:36:42;16.33;;;14.53;;
11608;SDS011;5860;52.018;8.536;2023-08-30T00:39:09;18.13;;;14.90;;
11608;SDS011;5860;52.018;8.536;2023-08-30T00:41:36;16.03;;;14.43;;
11608;SDS011;5860;52.018;8.536;2023-08-30T00:44:03;17.67;;;14.80;;
11608;SDS011;5860;52.018;8.536;2023-08-30T00:46:30;16.47;;;14.83;;
11608;SDS011;5860;52.018;8.536;2023-08-30T00:49:01;16.03;;;14.33;;
11608;SDS011;5860;52.018;8.536;2023-08-30T00:51:30;15.10;;;13.50;;
11608;SDS011;5860;52.018;8.536;2023-08-30T00:53:58;16.47;;;13.80;;
11608;SDS011;5860;52.018;8.536;2023-08-30T00:56:29;14.30;;;12.90;;
11608;SDS011;5860;52.018;8.536;2023-08-30T00:58:57;13.60;;;12.20;;
11608;SDS011;5860;52.018;8.536;2023-08-30T01:01:24;14.50;;;12.70;;
11608;SDS011;5860;52.018;8.536;2023-08-30T01:03:52;15.87;;;12.93;;
11608;SDS011;5860;52.018;8.536;2023-08-30T01:06:20;14.33;;;12.87;;
11608;SDS011;5860;52.018;8.536;2023-08-30T01:08:46;13.33;;;12.03;;
11608;SDS011;5860;52.018;8.536;2023-08-30T01:11:30;14.17;;;11.60;;
11608;SDS011;5860;52.018;8.536;2023-08-30T01:14:10;12.50;;;11.20;;
11608;SDS011;5860;52.018;8.536;2023-08-30T01:16:41;14.80;;;11.83;;
11608;SDS011;5860;52.018;8.536;2023-08-30T01:22:08;12.90;;;11.60;;
11608;SDS011;5860;52.018;8.536;2023-08-30T01:24:44;11.70;;;10.50;;
11608;SDS011;5860;52.018;8.536;2023-08-30T01:27:18;14.40;;;10.47;;
11608;SDS011;5860;52.018;8.536;2023-08-30T01:29:46;11.63;;;10.50;;
11608;SDS011;5860;52.018;8.536;2023-08-30T01:32:15;12.77;;;10.37;;
11608;SDS011;5860;52.018;8.536;2023-08-30T01:34:43;11.67;;;9.80;;
11608;SDS011;5860;52.018;8.536;2023-08-30T01:37:13;10.30;;;9.17;;
11608;SDS011;5860;52.018;8.536;2023-08-30T01:39:41;11.57;;;10.13;;
11608;SDS011;5860;52.018;8.536;2023-08-30T01:42:09;12.70;;;10.20;;
11608;SDS011;5860;52.018;8.536;2023-08-30T01:44:36;10.43;;;9.33;;
11608;SDS011;5860;52.018;8.536;2023-08-30T01:47:07;11.13;;;9.73;;
11608;SDS011;5860;52.018;8.536;2023-08-30T01:49:34;10.17;;;9.13;;
11608;SDS011;5860;52.018;8.536;2023-08-30T01:52:04;9.70;;;8.70;;
11608;SDS011;5860;52.018;8.536;2023-08-30T01:54:31;13.03;;;9.70;;
11608;SDS011;5860;52.018;8.536;2023-08-30T01:56:59;10.53;;;9.43;;
11608;SDS011;5860;52.018;8.536;2023-08-30T01:59:26;11.20;;;10.10;;
11608;SDS011;5860;52.018;8.536;2023-08-30T02:01:53;10.80;;;9.70;;
11608;SDS011;5860;52.018;8.536;2023-08-30T02:04:20;10.67;;;9.57;;
11608;SDS011;5860;52.018;8.536;2023-08-30T02:06:58;10.73;;;9.50;;
11608;SDS011;5860;52.018;8.536;2023-08-30T02:09:34;9.60;;;8.60;;
11608;SDS011;5860;52.018;8.536;2023-08-30T02:12:07;10.40;;;9.13;;
11608;SDS011;5860;52.018;8.536;2023-08-30T02:14:39;10.17;;;9.10;;
11608;SDS011;5860;52.018;8.536;2023-08-30T02:17:11;9.83;;;8.83;;
11608;SDS011;5860;52.018;8.536;2023-08-30T02:19:42;12.70;;;9.67;;
11608;SDS011;5860;52.018;8.536;2023-08-30T02:22:11;11.43;;;8.97;;
11608;SDS011;5860;52.018;8.536;2023-08-30T02:24:38;9.63;;;8.67;;
11608;SDS011;5860;52.018;8.536;2023-08-30T02:27:05;9.83;;;8.57;;
11608;SDS011;5860;52.018;8.536;2023-08-30T02:29:32;11.43;;;8.97;;
11608;SDS011;5860;52.018;8.536;2023-08-30T02:31:59;10.23;;;9.23;;
11608;SDS011;5860;52.018;8.536;2023-08-30T02:34:26;11.83;;;8.90;;
11608;SDS011;5860;52.018;8.536;2023-08-30T02:36:53;10.17;;;8.77;;
11608;SDS011;5860;52.018;8.536;2023-08-30T02:39:20;11.00;;;8.87;;
11608;SDS011;5860;52.018;8.536;2023-08-30T02:41:47;11.30;;;9.40;;
11608;SDS011;5860;52.018;8.536;2023-08-30T02:44:14;10.43;;;9.43;;
11608;SDS011;5860;52.018;8.536;2023-08-30T02:46:41;11.03;;;9.47;;
11608;SDS011;5860;52.018;8.536;2023-08-30T02:49:08;12.30;;;9.70;;
11608;SDS011;5860;52.018;8.536;2023-08-30T02:58:04;12.57;;;10.67;;
11608;SDS011;5860;52.018;8.536;2023-08-30T03:00:31;13.53;;;10.83;;
11608;SDS011;5860;52.018;8.536;2023-08-30T03:03:00;14.43;;;10.63;;
11608;SDS011;5860;52.018;8.536;2023-08-30T03:05:27;12.17;;;10.87;;
11608;SDS011;5860;52.018;8.536;2023-08-30T03:07:54;11.07;;;9.93;;
11608;SDS011;5860;52.018;8.536;2023-08-30T03:10:21;11.57;;;10.37;;
11608;SDS011;5860;52.018;8.536;2023-08-30T03:12:49;13.07;;;11.67;;
11608;SDS011;5860;52.018;8.536;2023-08-30T03:15:16;14.10;;;11.30;;
11608;SDS011;5860;52.018;8.536;2023-08-30T03:17:43;14.53;;;10.93;;
11608;SDS011;5860;52.018;8.536;2023-08-30T03:20:10;13.70;;;11.47;;
11608;SDS011;5860;52.018;8.536;2023-08-30T03:22:38;12.63;;;11.43;;
11608;SDS011;5860;52.018;8.536;2023-08-30T03:25:05;13.43;;;12.03;;
11608;SDS011;5860;52.018;8.536;2023-08-30T03:27:33;12.77;;;11.30;;
11608;SDS011;5860;52.018;8.536;2023-08-30T03:30:00;12.43;;;11.10;;
11608;SDS011;5860;52.018;8.536;2023-08-30T03:32:27;13.50;;;11.73;;
11608;SDS011;5860;52.018;8.536;2023-08-30T03:34:55;12.20;;;11.10;;
11608;SDS011;5860;52.018;8.536;2023-08-30T03:37:22;12.27;;;10.93;;
11608;SDS011;5860;52.018;8.536;2023-08-30T03:39:49;11.97;;;10.53;;
11608;SDS011;5860;52.018;8.536;2023-08-30T03:42:16;16.13;;;11.47;;
11608;SDS011;5860;52.018;8.536;2023-08-30T03:44:43;14.03;;;11.03;;
11608;SDS011;5860;52.018;8.536;2023-08-30T03:47:10;16.20;;;12.10;;
11608;SDS011;5860;52.018;8.536;2023-08-30T03:49:36;13.80;;;11.40;;
11608;SDS011;5860;52.018;8.536;2023-08-30T03:52:03;13.73;;;12.23;;
11608;SDS011;5860;52.018;8.536;2023-08-30T03:54:31;15.17;;;11.87;;
11608;SDS011;5860;52.018;8.536;2023-08-30T03:56:58;14.53;;;11.70;;
11608;SDS011;5860;52.018;8.536;2023-08-30T03:59:25;14.43;;;11.80;;
11608;SDS011;5860;52.018;8.536;2023-08-30T04:01:54;13.97;;;12.47;;
11608;SDS011;5860;52.018;8.536;2023-08-30T04:04:21;14.07;;;12.50;;
11608;SDS011;5860;52.018;8.536;2023-08-30T04:06:48;13.40;;;11.47;;
11608;SDS011;5860;52.018;8.536;2023-08-30T04:09:15;14.00;;;12.50;;
11608;SDS011;5860;52.018;8.536;2023-08-30T04:11:43;14.57;;;12.07;;
11608;SDS011;5860;52.018;8.536;2023-08-30T04:14:10;15.00;;;12.57;;
11608;SDS011;5860;52.018;8.536;2023-08-30T04:16:37;14.30;;;12.93;;
11608;SDS011;5860;52.018;8.536;2023-08-30T04:19:04;16.20;;;13.30;;
11608;SDS011;5860;52.018;8.536;2023-08-30T04:21:31;15.30;;;12.60;;
11608;SDS011;5860;52.018;8.536;2023-08-30T04:23:58;16.03;;;13.57;;
11608;SDS011;5860;52.018;8.536;2023-08-30T04:26:29;14.40;;;12.87;;
11608;SDS011;5860;52.018;8.536;2023-08-30T04:28:56;15.23;;;13.57;;
11608;SDS011;5860;52.018;8.536;2023-08-30T04:31:23;16.17;;;14.00;;
11608;SDS011;5860;52.018;8.536;2023-08-30T04:33:51;15.93;;;14.00;;
11608;SDS011;5860;52.018;8.536;2023-08-30T04:36:20;15.40;;;13.80;;
11608;SDS011;5860;52.018;8.536;2023-08-30T04:38:47;16.43;;;14.07;;
11608;SDS011;5860;52.018;8.536;2023-08-30T04:41:27;19.43;;;14.73;;
11608;SDS011;5860;52.018;8.536;2023-08-30T04:43:55;17.33;;;13.97;;
11608;SDS011;5860;52.018;8.536;2023-08-30T04:46:21;18.40;;;15.50;;
11608;SDS011;5860;52.018;8.536;2023-08-30T04:48:48;16.60;;;14.87;;
11608;SDS011;5860;52.018;8.536;2023-08-30T04:51:15;18.70;;;15.20;;
11608;SDS011;5860;52.018;8.536;2023-08-30T04:53:42;19.07;;;16.50;;
11608;SDS011;5860;52.018;8.536;2023-08-30T04:56:13;18.43;;;16.20;;
11608;SDS011;5860;52.018;8.536;2023-08-30T04:58:40;18.53;;;15.93;;
11608;SDS011;5860;52.018;8.536;2023-08-30T05:01:07;23.10;;;17.60;;
11608;SDS011;5860;52.018;8.536;2023-08-30T05:03:35;21.00;;;16.70;;
11608;SDS011;5860;52.018;8.536;2023-08-30T05:06:03;20.67;;;16.97;;
11608;SDS011;5860;52.018;8.536;2023-08-30T05:08:30;19.50;;;17.33;;
11608;SDS011;5860;52.018;8.536;2023-08-30T05:10:56;22.47;;;18.90;;
11608;SDS011;5860;52.018;8.536;2023-08-30T05:13:24;22.20;;;17.77;;
11608;SDS011;5860;52.018;8.536;2023-08-30T05:15:51;21.77;;;18.50;;
11608;SDS011;5860;52.018;8.536;2023-08-30T05:18:18;21.10;;;18.90;;
11608;SDS011;5860;52.018;8.536;2023-08-30T05:20:46;21.67;;;18.73;;
11608;SDS011;5860;52.018;8.536;2023-08-30T05:23:13;22.07;;;18.50;;
11608;SDS011;5860;52.018;8.536;2023-08-30T05:25:40;25.13;;;18.63;;
11608;SDS011;5860;52.018;8.536;2023-08-30T05:28:07;23.57;;;18.57;;
11608;SDS011;5860;52.018;8.536;2023-08-30T05:30:34;22.20;;;19.50;;
11608;SDS011;5860;52.018;8.536;2023-08-30T05:33:01;20.53;;;18.17;;
11608;SDS011;5860;52.018;8.536;2023-08-30T05:35:29;24.10;;;19.33;;
11608;SDS011;5860;52.018;8.536;2023-08-30T05:37:56;21.80;;;19.47;;
11608;SDS011;5860;52.018;8.536;2023-08-30T05:40:23;25.77;;;19.93;;
11608;SDS011;5860;52.018;8.536;2023-08-30T05:42:51;27.47;;;19.30;;
11608;SDS011;5860;52.018;8.536;2023-08-30T05:45:19;23.70;;;19.27;;
11608;SDS011;5860;52.018;8.536;2023-08-30T05:47:47;27.83;;;19.93;;
11608;SDS011;5860;52.018;8.536;2023-08-30T05:50:16;28.87;;;19.50;;
11608;SDS011;5860;52.018;8.536;2023-08-30T05:52:43;21.77;;;17.93;;
11608;SDS011;5860;52.018;8.536;2023-08-30T05:55:11;22.03;;;18.07;;
11608;SDS011;5860;52.018;8.536;2023-08-30T05:57:38;26.63;;;20.17;;
11608;SDS011;5860;52.018;8.536;2023-08-30T06:00:05;27.57;;;20.07;;
11608;SDS011;5860;52.018;8.536;2023-08-30T06:02:33;22.93;;;18.90;;
11608;SDS011;5860;52.018;8.536;2023-08-30T06:05:01;24.50;;;19.57;;
11608;SDS011;5860;52.018;8.536;2023-08-30T06:07:29;24.10;;;19.63;;
11608;SDS011;5860;52.018;8.536;2023-08-30T06:09:56;21.87;;;19.57;;
11608;SDS011;5860;52.018;8.536;2023-08-30T06:12:24;23.47;;;18.73;;
11608;SDS011;5860;52.018;8.536;2023-08-30T06:14:52;25.17;;;19.87;;
11608;SDS011;5860;52.018;8.536;2023-08-30T06:17:19;24.43;;;19.60;;
11608;SDS011;5860;52.018;8.536;2023-08-30T06:19:46;21.80;;;17.47;;
11608;SDS011;5860;52.018;8.536;2023-08-30T06:22:14;19.23;;;16.87;;
11608;SDS011;5860;52.018;8.536;2023-08-30T06:24:41;19.50;;;16.10;;
11608;SDS011;5860;52.018;8.536;2023-08-30T06:27:08;19.57;;;16.47;;
11608;SDS011;5860;52.018;8.536;2023-08-30T06:29:35;18.73;;;15.60;;
11608;SDS011;5860;52.018;8.536;2023-08-30T06:32:03;17.13;;;14.87;;
11608;SDS011;5860;52.018;8.536;2023-08-30T06:34:30;16.43;;;14.63;;
11608;SDS011;5860;52.018;8.536;2023-08-30T06:36:57;18.43;;;15.00;;
11608;SDS011;5860;52.018;8.536;2023-08-30T06:39:24;18.73;;;16.07;;
11608;SDS011;5860;52.018;8.536;2023-08-30T06:41:51;16.63;;;14.90;;
11608;SDS011;5860;52.018;8.536;2023-08-30T06:44:18;17.05;;;15.27;;
11608;SDS011;5860;52.018;8.536;2023-08-30T06:46:45;16.88;;;15.20;;
11608;SDS011;5860;52.018;8.536;2023-08-30T06:49:12;16.27;;;14.45;;
11608;SDS011;5860;52.018;8.536;2023-08-30T06:51:39;16.77;;;14.95;;
11608;SDS011;5860;52.018;8.536;2023-08-30T06:54:06;17.92;;;14.90;;
11608;SDS011;5860;52.018;8.536;2023-08-30T06:56:33;16.48;;;14.70;;
11608;SDS011;5860;52.018;8.536;2023-08-30T06:59:00;16.15;;;14.55;;
11608;SDS011;5860;52.018;8.536;2023-08-30T07:01:27;16.27;;;14.63;;
11608;SDS011;5860;52.018;8.536;2023-08-30T07:03:54;16.33;;;14.48;;
11608;SDS011;5860;52.018;8.536;2023-08-30T07:06:21;14.88;;;13.10;;
11608;SDS011;5860;52.018;8.536;2023-08-30T07:08:48;15.07;;;13.65;;
11608;SDS011;5860;52.018;8.536;2023-08-30T07:11:15;14.60;;;13.10;;
11608;SDS011;5860;52.018;8.536;2023-08-30T07:13:59;15.10;;;13.50;;
11608;SDS011;5860;52.018;8.536;2023-08-30T07:16:26;14.55;;;13.02;;
11608;SDS011;5860;52.018;8.536;2023-08-30T07:18:53;15.20;;;12.57;;
11608;SDS011;5860;52.018;8.536;2023-08-30T07:21:20;15.73;;;12.88;;
11608;SDS011;5860;52.018;8.536;2023-08-30T07:23:48;14.63;;;13.18;;
11608;SDS011;5860;52.018;8.536;2023-08-30T07:26:15;15.68;;;14.00;;
11608;SDS011;5860;52.018;8.536;2023-08-30T07:28:42;15.07;;;13.50;;
11608;SDS011;5860;52.018;8.536;2023-08-30T07:31:09;14.68;;;13.07;;
11608;SDS011;5860;52.018;8.536;2023-08-30T07:33:40;16.17;;;13.43;;
11608;SDS011;5860;52.018;8.536;2023-08-30T07:36:07;14.77;;;12.57;;
11608;SDS011;5860;52.018;8.536;2023-08-30T07:38:35;15.98;;;13.27;;
11608;SDS011;5860;52.018;8.536;2023-08-30T07:41:02;13.15;;;11.82;;
11608;SDS011;5860;52.018;8.536;2023-08-30T07:43:29;13.68;;;12.27;;
11608;SDS011;5860;52.018;8.536;2023-08-30T07:45:57;15.47;;;12.50;;
11608;SDS011;5860;52.018;8.536;2023-08-30T07:48:25;13.40;;;12.10;;
11608;SDS011;5860;52.018;8.536;2023-08-30T07:50:52;13.60;;;12.20;;
11608;SDS011;5860;52.018;8.536;2023-08-30T07:53:19;15.27;;;12.13;;
11608;SDS011;5860;52.018;8.536;2023-08-30T07:55:49;13.93;;;12.52;;
11608;SDS011;5860;52.018;8.536;2023-08-30T07:58:17;17.65;;;12.32;;
11608;SDS011;5860;52.018;8.536;2023-08-30T08:00:44;14.27;;;12.18;;
11608;SDS011;5860;52.018;8.536;2023-08-30T08:03:13;14.90;;;13.18;;
11608;SDS011;5860;52.018;8.536;2023-08-30T08:05:40;15.98;;;14.15;;
11608;SDS011;5860;52.018;8.536;2023-08-30T08:08:08;17.35;;;15.50;;
11608;SDS011;5860;52.018;8.536;2023-08-30T08:10:37;18.50;;;16.17;;
11608;SDS011;5860;52.018;8.536;2023-08-30T08:13:04;21.15;;;16.92;;
11608;SDS011;5860;52.018;8.536;2023-08-30T08:15:31;17.73;;;15.82;;
11608;SDS011;5860;52.018;8.536;2023-08-30T08:18:00;20.77;;;17.60;;
11608;SDS011;5860;52.018;8.536;2023-08-30T08:20:28;18.95;;;16.05;;
11608;SDS011;5860;52.018;8.536;2023-08-30T08:22:56;18.30;;;16.30;;
11608;SDS011;5860;52.018;8.536;2023-08-30T08:25:23;20.98;;;16.17;;
11608;SDS011;5860;52.018;8.536;2023-08-30T08:27:50;18.77;;;16.02;;
11608;SDS011;5860;52.018;8.536;2023-08-30T08:30:18;17.77;;;15.98;;
11608;SDS011;5860;52.018;8.536;2023-08-30T08:32:46;18.80;;;15.90;;
11608;SDS011;5860;52.018;8.536;2023-08-30T08:35:16;17.83;;;16.00;;
11608;SDS011;5860;52.018;8.536;2023-08-30T08:37:43;18.05;;;15.85;;
11608;SDS011;5860;52.018;8.536;2023-08-30T08:40:10;17.50;;;15.65;;
11608;SDS011;5860;52.018;8.536;2023-08-30T08:42:38;19.23;;;17.08;;
11608;SDS011;5860;52.018;8.536;2023-08-30T08:45:06;23.38;;;17.02;;
11608;SDS011;5860;52.018;8.536;2023-08-30T08:47:35;18.48;;;16.30;;
11608;SDS011;5860;52.018;8.536;2023-08-30T08:50:02;18.80;;;15.85;;
11608;SDS011;5860;52.018;8.536;2023-08-30T08:52:31;18.75;;;16.10;;
11608;SDS011;5860;52.018;8.536;2023-08-30T08:55:16;19.40;;;16.17;;
11608;SDS011;5860;52.018;8.536;2023-08-30T08:57:44;17.67;;;15.73;;
11608;SDS011;5860;52.018;8.536;2023-08-30T09:00:12;18.13;;;16.30;;
11608;SDS011;5860;52.018;8.536;2023-08-30T09:02:40;18.88;;;16.17;;
11608;SDS011;5860;52.018;8.536;2023-08-30T09:05:08;19.98;;;15.93;;
11608;SDS011;5860;52.018;8.536;2023-08-30T09:07:36;18.42;;;16.20;;
11608;SDS011;5860;52.018;8.536;2023-08-30T09:10:04;20.20;;;15.70;;
11608;SDS011;5860;52.018;8.536;2023-08-30T09:12:34;16.38;;;14.68;;
11608;SDS011;5860;52.018;8.536;2023-08-30T09:15:02;17.33;;;14.70;;
11608;SDS011;5860;52.018;8.536;2023-08-30T09:17:36;17.25;;;14.65;;
11608;SDS011;5860;52.018;8.536;2023-08-30T09:20:07;15.85;;;13.20;;
11608;SDS011;5860;52.018;8.536;2023-08-30T09:22:36;15.45;;;12.93;;
11608;SDS011;5860;52.018;8.536;2023-08-30T09:25:11;13.75;;;12.32;;
11608;SDS011;5860;52.018;8.536;2023-08-30T09:27:48;17.38;;;13.73;;
11608;SDS011;5860;52.018;8.536;2023-08-30T09:30:20;16.08;;;13.55;;
11608;SDS011;5860;52.018;8.536;2023-08-30T09:32:48;17.70;;;14.48;;
11608;SDS011;5860;52.018;8.536;2023-08-30T09:35:16;18.30;;;14.52;;
11608;SDS011;5860;52.018;8.536;2023-08-30T09:37:46;14.75;;;12.45;;
11608;SDS011;5860;52.018;8.536;2023-08-30T09:40:18;13.50;;;11.32;;
11608;SDS011;5860;52.018;8.536;2023-08-30T09:42:46;13.68;;;12.02;;
11608;SDS011;5860;52.018;8.536;2023-08-30T09:45:33;14.63;;;10.95;;
11608;SDS011;5860;52.018;8.536;2023-08-30T09:48:01;12.98;;;11.57;;
11608;SDS011;5860;52.018;8.536;2023-08-30T09:50:29;18.80;;;12.82;;
11608;SDS011;5860;52.018;8.536;2023-08-30T09:53:07;14.20;;;12.40;;
11608;SDS011;5860;52.018;8.536;2023-08-30T09:55:39;13.63;;;11.45;;
11608;SDS011;5860;52.018;8.536;2023-08-30T09:58:06;14.35;;;12.02;;
11608;SDS011;5860;52.018;8.536;2023-08-30T10:00:34;15.75;;;11.77;;
11608;SDS011;5860;52.018;8.536;2023-08-30T10:03:01;8.13;;;7.25;;
11608;SDS011;5860;52.018;8.536;2023-08-30T10:05:48;10.02;;;8.35;;
11608;SDS011;5860;52.018;8.536;2023-08-30T10:08:15;10.65;;;8.30;;
11608;SDS011;5860;52.018;8.536;2023-08-30T10:10:44;12.25;;;8.88;;
11608;SDS011;5860;52.018;8.536;2023-08-30T10:13:10;9.23;;;7.78;;
11608;SDS011;5860;52.018;8.536;2023-08-30T10:15:40;10.35;;;8.30;;
11608;SDS011;5860;52.018;8.536;2023-08-30T10:18:15;8.50;;;6.78;;
11608;SDS011;5860;52.018;8.536;2023-08-30T10:20:47;8.75;;;6.95;;
11608;SDS011;5860;52.018;8.536;2023-08-30T10:23:16;9.95;;;7.72;;
11608;SDS011;5860;52.018;8.536;2023-08-30T10:25:44;9.32;;;8.32;;
11608;SDS011;5860;52.018;8.536;2023-08-30T10:28:15;9.93;;;8.18;;
11608;SDS011;5860;52.018;8.536;2023-08-30T10:30:43;10.10;;;7.55;;
11608;SDS011;5860;52.018;8.536;2023-08-30T10:33:13;8.68;;;7.28;;
11608;SDS011;5860;52.018;8.536;2023-08-30T10:35:50;11.85;;;7.72;;
11608;SDS011;5860;52.018;8.536;2023-08-30T10:38:38;7.78;;;6.93;;
11608;SDS011;5860;52.018;8.536;2023-08-30T10:41:19;6.90;;;6.13;;
11608;SDS011;5860;52.018;8.536;2023-08-30T10:43:55;8.25;;;6.82;;
11608;SDS011;5860;52.018;8.536;2023-08-30T10:46:33;8.23;;;7.43;;
11608;SDS011;5860;52.018;8.536;2023-08-30T10:49:09;10.65;;;7.78;;
11608;SDS011;5860;52.018;8.536;2023-08-30T10:51:40;7.93;;;6.22;;
11608;SDS011;5860;52.018;8.536;2023-08-30T10:54:14;7.68;;;6.63;;
11608;SDS011;5860;52.018;8.536;2023-08-30T10:56:46;8.45;;;6.10;;
11608;SDS011;5860;52.018;8.536;2023-08-30T10:59:18;9.23;;;6.10;;
11608;SDS011;5860;52.018;8.536;2023-08-30T11:01:46;9.98;;;6.80;;
11608;SDS011;5860;52.018;8.536;2023-08-30T11:04:15;9.00;;;5.82;;
11608;SDS011;5860;52.018;8.536;2023-08-30T11:06:46;9.95;;;6.57;;
11608;SDS011;5860;52.018;8.536;2023-08-30T11:09:15;7.95;;;6.15;;
11608;SDS011;5860;52.018;8.536;2023-08-30T11:11:46;6.85;;;5.75;;
11608;SDS011;5860;52.018;8.536;2023-08-30T11:14:14;8.43;;;5.80;;
11608;SDS011;5860;52.018;8.536;2023-08-30T11:16:42;7.82;;;5.90;;
11608;SDS011;5860;52.018;8.536;2023-08-30T11:19:09;6.25;;;5.63;;
11608;SDS011;5860;52.018;8.536;2023-08-30T11:21:38;11.95;;;5.72;;
11608;SDS011;5860;52.018;8.536;2023-08-30T11:24:08;6.45;;;5.63;;
11608;SDS011;5860;52.018;8.536;2023-08-30T11:26:36;6.72;;;4.90;;
11608;SDS011;5860;52.018;8.536;2023-08-30T11:29:03;5.97;;;4.70;;
11608;SDS011;5860;52.018;8.536;2023-08-30T11:31:34;8.98;;;4.68;;
11608;SDS011;5860;52.018;8.536;2023-08-30T11:34:02;6.97;;;5.05;;
11608;SDS011;5860;52.018;8.536;2023-08-30T11:36:30;5.57;;;4.50;;
11608;SDS011;5860;52.018;8.536;2023-08-30T11:38:58;4.72;;;4.20;;
11608;SDS011;5860;52.018;8.536;2023-08-30T11:41:25;6.88;;;4.20;;
11608;SDS011;5860;52.018;8.536;2023-08-30T11:43:53;5.32;;;4.65;;
11608;SDS011;5860;52.018;8.536;2023-08-30T11:46:23;6.40;;;4.57;;
11608;SDS011;5860;52.018;8.536;2023-08-30T11:48:50;6.22;;;4.53;;
11608;SDS011;5860;52.018;8.536;2023-08-30T11:51:18;4.78;;;4.07;;
11608;SDS011;5860;52.018;8.536;2023-08-30T11:53:46;6.93;;;4.47;;
11608;SDS011;5860;52.018;8.536;2023-08-30T11:56:14;6.97;;;4.63;;
11608;SDS011;5860;52.018;8.536;2023-08-30T11:58:42;5.30;;;4.13;;
11608;SDS011;5860;52.018;8.536;2023-08-30T12:01:10;5.47;;;4.25;;
11608;SDS011;5860;52.018;8.536;2023-08-30T12:03:38;5.75;;;4.28;;
11608;SDS011;5860;52.018;8.536;2023-08-30T12:06:09;5.13;;;4.40;;
11608;SDS011;5860;52.018;8.536;2023-08-30T12:08:38;6.70;;;4.20;;
11608;SDS011;5860;52.018;8.536;2023-08-30T12:11:16;5.22;;;3.90;;
11608;SDS011;5860;52.018;8.536;2023-08-30T12:13:48;5.25;;;3.80;;
11608;SDS011;5860;52.018;8.536;2023-08-30T12:16:18;5.35;;;3.85;;
11608;SDS011;5860;52.018;8.536;2023-08-30T12:18:47;5.38;;;4.00;;
11608;SDS011;5860;52.018;8.536;2023-08-30T12:21:14;5.13;;;3.85;;
11608;SDS011;5860;52.018;8.536;2023-08-30T12:23:42;6.22;;;4.05;;
11608;SDS011;5860;52.018;8.536;2023-08-30T12:26:10;6.88;;;3.90;;
11608;SDS011;5860;52.018;8.536;2023-08-30T12:28:38;5.07;;;4.25;;
11608;SDS011;5860;52.018;8.536;2023-08-30T12:31:07;7.07;;;3.72;;
11608;SDS011;5860;52.018;8.536;2023-08-30T12:33:35;6.40;;;4.07;;
11608;SDS011;5860;52.018;8.536;2023-08-30T12:36:04;8.52;;;5.72;;
11608;SDS011;5860;52.018;8.536;2023-08-30T12:38:31;5.50;;;4.15;;
11608;SDS011;5860;52.018;8.536;2023-08-30T12:40:59;6.18;;;4.47;;
11608;SDS011;5860;52.018;8.536;2023-08-30T12:43:27;5.75;;;4.28;;
11608;SDS011;5860;52.018;8.536;2023-08-30T12:45:54;5.60;;;4.57;;
11608;SDS011;5860;52.018;8.536;2023-08-30T12:48:23;8.10;;;4.57;;
11608;SDS011;5860;52.018;8.536;2023-08-30T12:50:50;5.57;;;4.80;;
11608;SDS011;5860;52.018;8.536;2023-08-30T12:53:17;6.47;;;5.55;;
11608;SDS011;5860;52.018;8.536;2023-08-30T12:55:45;6.53;;;5.50;;
11608;SDS011;5860;52.018;8.536;2023-08-30T12:58:12;7.60;;;6.07;;
11608;SDS011;5860;52.018;8.536;2023-08-30T13:00:40;7.05;;;6.35;;
11608;SDS011;5860;52.018;8.536;2023-08-30T13:03:08;8.07;;;6.70;;
11608;SDS011;5860;52.018;8.536;2023-08-30T13:05:37;9.68;;;6.95;;
11608;SDS011;5860;52.018;8.536;2023-08-30T13:08:04;7.90;;;6.28;;
11608;SDS011;5860;52.018;8.536;2023-08-30T13:10:32;9.68;;;6.90;;
11608;SDS011;5860;52.018;8.536;2023-08-30T13:12:59;9.15;;;6.68;;
11608;SDS011;5860;52.018;8.536;2023-08-30T13:15:27;7.85;;;6.72;;
11608;SDS011;5860;52.018;8.536;2023-08-30T13:17:54;7.18;;;6.20;;
11608;SDS011;5860;52.018;8.536;2023-08-30T13:20:21;7.23;;;6.50;;
11608;SDS011;5860;52.018;8.536;2023-08-30T13:22:49;8.53;;;6.97;;
11608;SDS011;5860;52.018;8.536;2023-08-30T13:25:16;8.68;;;6.60;;
11608;SDS011;5860;52.018;8.536;2023-08-30T13:27:44;11.10;;;7.47;;
11608;SDS011;5860;52.018;8.536;2023-08-30T13:30:12;8.10;;;6.80;;
11608;SDS011;5860;52.018;8.536;2023-08-30T13:32:41;11.38;;;8.10;;
11608;SDS011;5860;52.018;8.536;2023-08-30T13:35:08;10.27;;;8.15;;
11608;SDS011;5860;52.018;8.536;2023-08-30T13:37:35;10.87;;;8.00;;
11608;SDS011;5860;52.018;8.536;2023-08-30T13:40:03;10.10;;;9.10;;
11608;SDS011;5860;52.018;8.536;2023-08-30T13:42:32;10.00;;;9.00;;
11608;SDS011;5860;52.018;8.536;2023-08-30T13:45:01;10.70;;;9.60;;
11608;SDS011;5860;52.018;8.536;2023-08-30T13:47:28;10.70;;;9.60;;
11608;SDS011;5860;52.018;8.536;2023-08-30T13:49:55;11.43;;;10.33;;
11608;SDS011;5860;52.018;8.536;2023-08-30T13:52:24;11.50;;;10.50;;
11608;SDS011;5860;52.018;8.536;2023-08-30T13:54:51;12.30;;;11.03;;
11608;SDS011;5860;52.018;8.536;2023-08-30T13:57:18;11.13;;;10.10;;
11608;SDS011;5860;52.018;8.536;2023-08-30T13:59:45;11.27;;;10.17;;
11608;SDS011;5860;52.018;8.536;2023-08-30T14:02:12;12.53;;;11.23;;
11608;SDS011;5860;52.018;8.536;2023-08-30T14:04:39;11.70;;;10.60;;
11608;SDS011;5860;52.018;8.536;2023-08-30T14:07:06;11.13;;;9.87;;
11608;SDS011;5860;52.018;8.536;2023-08-30T14:09:33;12.40;;;10.30;;
11608;SDS011;5860;52.018;8.536;2023-08-30T14:12:00;10.37;;;9.33;;
11608;SDS011;5860;52.018;8.536;2023-08-30T14:14:30;11.67;;;10.50;;
11608;SDS011;5860;52.018;8.536;2023-08-30T14:16:57;11.90;;;10.63;;
11608;SDS011;5860;52.018;8.536;2023-08-30T14:19:24;12.33;;;10.83;;
11608;SDS011;5860;52.018;8.536;2023-08-30T14:21:51;12.70;;;11.40;;
11608;SDS011;5860;52.018;8.536;2023-08-30T14:24:21;13.00;;;11.70;;
11608;SDS011;5860;52.018;8.536;2023-08-30T14:26:48;13.10;;;11.90;;
11608;SDS011;5860;52.018;8.536;2023-08-30T14:29:15;13.10;;;11.70;;
11608;SDS011;5860;52.018;8.536;2023-08-30T14:31:46;12.50;;;11.33;;
11608;SDS011;5860;52.018;8.536;2023-08-30T14:34:13;11.90;;;10.80;;
11608;SDS011;5860;52.018;8.536;2023-08-30T14:36:40;12.10;;;11.00;;
11608;SDS011;5860;52.018;8.536;2023-08-30T14:39:09;12.70;;;11.40;;
11608;SDS011;5860;52.018;8.536;2023-08-30T14:41:36;12.40;;;11.03;;
11608;SDS011;5860;52.018;8.536;2023-08-30T14:44:04;11.63;;;10.43;;
11608;SDS011;5860;52.018;8.536;2023-08-30T14:46:32;12.00;;;10.90;;
11608;SDS011;5860;52.018;8.536;2023-08-30T14:48:59;12.57;;;11.30;;
11608;SDS011;5860;52.018;8.536;2023-08-30T14:51:27;11.33;;;10.17;;
11608;SDS011;5860;52.018;8.536;2023-08-30T14:53:55;11.87;;;10.73;;
11608;SDS011;5860;52.018;8.536;2023-08-30T14:56:23;11.43;;;10.43;;
11608;SDS011;5860;52.018;8.536;2023-08-30T14:58:50;12.67;;;10.73;;